Terminal Aerodrome Forecast
Issued by NWS Jackson, MS

Current Version | Previous Version | Text Only | Print | Product List | Glossary On
Versions: 1 2 3 4 5 6 7 8 9 10 11 12 13
000
FTUS44 KJAN 012300
TAFHBG
TAF
KHBG 012339Z 0200/0224 VRB03KT P6SM SKC
     FM020800 00000KT 5SM BR OVC090
     FM021400 02004KT P6SM SCT050 BKN100=

USA.gov is the U.S. government's official web portal to all federal, state and local government web resources and services.